Airfield :
LOGIN :

Register | Disclaimer

   EN    FR    IT 

 










Legend :    VFR   Marginal VFR   IFR   Intensive IFR   Very Intensive IFR
Visi :
Ceiling :
>= 8 km
>= 3000ft
5 to 8 km
1000 to 3000 ft
1500m to 5 km
500 to 1000 ft
800 to 1500m
200 to 500 ft
< 800m
< 200 ft
Symbols :   Thunderstorms  Fog  Heavy snow  Heavy precipitations  Wind > 20 kt
SIGMETs :     Misc.  Thunderstorms  Icing  Turbulence  Mountain Waves  Volcanic Ashes






- Airport Elevation : 12 ft
- IATA code : BCN


LEBL - Barcelone

CURRENT METAR :
  • 210500Z 31011KT CAVOK 07/04 Q1028 NOSIG

EXPIRED METARs :
  • 210430Z 27004KT 240V310 9999 FEW025 07/04 Q1028 NOSIG
  • 210400Z 31012KT 9999 FEW025 07/05 Q1028 NOSIG
  • 210330Z 31010KT 9000 FEW025 07/05 Q1028 NOSIG
  • 210300Z 33008KT 9000 FEW025 07/05 Q1028 NOSIG

TAF TAF LEBL
Valid from the 21 at 00:00 until the 22 at 00:00 UTC


202300Z 2100/2124 33006KT 9999 FEW025 TX17/2113Z TN07/2106Z
BECMG 2110/2112 25012KT



MET'MAP, your aeronautical weather chart ! - Copyright ORBIFLY December 2007 - Disclaimer

ORBIFLY MET'MAP TEAM :

Programming & Development : Alexandra Zaïnal
Concept & original design : Baudouin d'Aumeries
Assistance for programming : Marc-Olivier Méhu
Technical & hardware support : Manuel Goepfert

Contact : metmap@orbifly.com




SOURCES & CREDITS :

   NOAA